Cold Bay, AK

3:20 PM AKDT on August 29, 2016 (GMT -0800)
Cold Bay | | Change Station

Elev 102 ft 55.22 °N, 162.73 °W | Updated 16 minutes ago

Overcast
Overcast
59 °F
Feels Like 59 °F
N
12
Wind Variable Wind from NNW

Today
High -- | Low -- °F
--% Chance of Precip.
Yesterday
High -- | Low -- °F
Precip. -- in
Pressure 30.18 in
Visibility 9.0 miles
Clouds Overcast 900 ft
Dew Point 56 °F
Humidity 90%
Rainfall 0.01 in
Snow Depth Not available.
7:52 AM 9:49 PM
Waning Crescent, 6% visible
SPECI PACD 292304Z 33010KT 9SM OVC009 15/13 A3018 RMK AO2 CIG 006V011 T01500133
Pressure 30.18 in
Visibility 9.0 miles
Clouds Overcast 900 ft
Dew Point 56 °F
Humidity 90%
Rainfall 0.01 in
Snow Depth Not available.
7:52 AM 9:49 PM
Waning Crescent, 6% visible
SPECI PACD 292304Z 33010KT 9SM OVC009 15/13 A3018 RMK AO2 CIG 006V011 T01500133

10-Day Weather Forecast

Almanac

Astronomy

Aug. 29, 2016 Rise Set
Actual Time
Civil Twilight
Nautical Twilight
Astronomical Twilight
Moon
Length of Visible Light
Length of Day
Tomorrow will be .
, % of the Moon is Illuminated

Today's Extremes

State Highs State Lows

Community

WunderPhotos

Upload Photos

1,935,692 photos uploaded!

WunderBlog® & News

Nearby

Air Quality

  Air Quality AQ Index Pollutant
Not available.

Snow Depth

Station Depth Elevation

Earthquake Activity

City Distance Mag. Time & Date
Minimum magnitude displayed is 2.5.

Coastal Water Temperatures

Place Temperature

Stations

Nearby Weather Stations

Station Location Temp. Windchill Dew Point Humidity Wind Precip. Elev Updated Type
                   

Watches & Warnings

There are currently no watches in effect.